< < Back
Terminal Aerodrome Forecast


Current Version              Previous Versions:   1  2  3  4  5  6  7  8  9  

Terminal Aerodrome Forecast

993
FTUS42 KFFC 220135 AAA
TAFPDK
TAF AMD
KPDK 220135Z 2202/2224 08005KT P6SM SCT015 BKN024 OVC035
     FM220400 09007KT 6SM BR OVC012
     FM220700 09005KT 5SM -DZ BR OVC007
     FM220900 09005KT 2SM -DZ BR OVC004
     FM221600 09007KT 5SM -DZ BR OVC007=



Latest METAR

461
SAUS70 KWBC 220700 RRA
MTRPDK
METAR KPDK 220653Z AUTO 06004KT 2 1/2SM BR OVC005 07/07 A3007 RMK AO2
RAB08E39 CIG 004V008 SLP189 P0000 T00720067 $


USA.gov is the U.S. government's official web portal to all federal, state and local government web resources and services.